WFDK1: Walnut River, Winfield, KS

Data processed at Thu Oct 11 2018 23:32


All information presented herein is the property of the government of the United States of America and may be revised or deleted at any time without prior notice.
Dissemination of this information without the expressed written consent of the Public Affairs Office, Tulsa District U.S. Army Corps of Engineers is strictly prohibited.
These data are gathered electronically and, as presented, have not undergone any form of quality control. These data are not guaranteed to be valid or correct.
Go to home page.
Go to station list.
Go to home page.

Upstream stations:

Downstream station:
Previous Day
Next Day
Current Day
    
SHEF ID:       WFDK1     WALNUT R AT WINFIELD, KS
STATION TYPE:  

               PRECIP     STAGE  RIV-FLOW  BAT-LOAD
                   in        ft       cfs      volt
              Ccp-Rev   Ccp-Rev   Ccp-Rev   Ccp-Rev
(US/Central)
10/11 00:00      0.00     23.86     26802     12.41
10/11 01:00      0.00     24.07     27141     12.33
10/11 02:00      0.00     24.13     27238     12.09
10/11 03:00      0.00     24.16     27287     12.17
10/11 04:00      0.01     24.26     27449     11.77
10/11 05:00      0.00     24.37     27627     12.01
10/11 06:00      0.00     24.41     27692     12.17
10/11 07:00      0.00     24.54     27904     12.09
10/11 08:00      0.00     24.55     27920     11.86
10/11 09:00      0.00     24.52     27871     12.49
10/11 10:00      0.00     24.56     27937     12.73
10/11 11:00      0.00     24.54     27904     13.29
10/11 12:00      0.00     24.57     27953     13.44
10/11 13:00      0.00     24.49     27823     13.60
10/11 14:00      0.00     24.51     27855     13.21
10/11 15:00      0.00     24.33     27562     12.97
10/11 16:00      0.01     24.32     27546     12.65
10/11 17:00      0.00     24.19     27335     12.73
10/11 18:00      0.00     24.01     27044     12.09
10/11 19:00      0.00     23.85     26786     12.17
10/11 20:00      0.00     23.78     26673     11.70
10/11 21:00      0.00     23.54     26288     11.70
10/11 22:00      0.01     23.31     25920     12.01
10/11 23:00      0.00     23.11     25601     12.01